createdAt,value
2017-07-20T00:00:52.401Z,24.4
2017-07-20T00:02:00.491Z,24.3
2017-07-20T00:03:08.594Z,24.4
2017-07-20T00:04:16.671Z,24.4
2017-07-20T00:05:24.760Z,24.4
2017-07-20T00:06:32.850Z,24.4
2017-07-20T00:07:40.939Z,24.4
2017-07-20T00:08:49.027Z,24.4
2017-07-20T00:09:57.124Z,24.4
2017-07-20T00:11:05.213Z,24.4
2017-07-20T00:12:13.308Z,24.3
2017-07-20T00:13:21.405Z,24.4
2017-07-20T00:14:29.492Z,24.4
2017-07-20T00:15:37.583Z,24.4
2017-07-20T00:16:45.676Z,24.3
2017-07-20T00:17:53.764Z,24.3
2017-07-20T00:19:01.851Z,24.3
2017-07-20T00:20:09.941Z,24.3
2017-07-20T00:21:18.035Z,24.3
2017-07-20T00:22:26.124Z,24.3
2017-07-20T00:23:34.216Z,24.3
2017-07-20T00:24:42.302Z,24.3
2017-07-20T00:25:50.392Z,24.3
2017-07-20T00:26:58.485Z,24.3
2017-07-20T00:28:06.573Z,24.2
2017-07-20T00:29:14.659Z,24.3
2017-07-20T00:30:22.748Z,24.3
2017-07-20T00:31:30.838Z,24.3
2017-07-20T00:32:38.926Z,24.2
2017-07-20T00:33:47.017Z,24.3
2017-07-20T00:34:55.107Z,24.3
2017-07-20T00:36:03.197Z,24.3
2017-07-20T00:37:11.284Z,24.4
2017-07-20T00:38:19.375Z,24.3
2017-07-20T00:39:27.463Z,24.2
2017-07-20T00:40:35.550Z,24.2
2017-07-20T00:41:43.640Z,24.3
2017-07-20T00:42:51.729Z,24.3
2017-07-20T00:43:59.818Z,24.2
2017-07-20T00:45:07.928Z,24.3
2017-07-20T00:46:15.993Z,24.3
2017-07-20T00:47:24.085Z,24.2
2017-07-20T00:48:32.175Z,24.2
2017-07-20T00:49:40.264Z,24.2
2017-07-20T00:50:48.376Z,24.2
2017-07-20T00:51:56.440Z,24.2
2017-07-20T00:53:04.530Z,24.2
2017-07-20T00:54:12.634Z,24.2
2017-07-20T00:55:20.706Z,24.2
2017-07-20T00:56:28.798Z,24.2
2017-07-20T00:57:36.887Z,24.2
2017-07-20T00:58:44.977Z,24.2
2017-07-20T00:59:53.065Z,24.2
2017-07-20T01:01:01.154Z,24.2
2017-07-20T01:02:09.242Z,24.2
2017-07-20T01:03:17.332Z,24.2
2017-07-20T01:04:25.426Z,24.2
2017-07-20T01:05:33.517Z,24.2
2017-07-20T01:06:41.604Z,24.2
2017-07-20T01:07:49.694Z,24.1
2017-07-20T01:08:57.783Z,24.2
2017-07-20T01:10:05.874Z,24.3
2017-07-20T01:11:13.988Z,24.2
2017-07-20T01:12:22.050Z,24.2
2017-07-20T01:13:30.139Z,24.1
2017-07-20T01:14:38.230Z,24.1
2017-07-20T01:15:46.319Z,24.1
2017-07-20T01:16:54.411Z,24.1
2017-07-20T01:18:02.496Z,24.1
2017-07-20T01:19:10.586Z,24.1
2017-07-20T01:20:18.674Z,24.2
2017-07-20T01:21:26.770Z,24.1
2017-07-20T01:22:34.860Z,24.1
2017-07-20T01:23:42.952Z,24.0
2017-07-20T01:24:51.037Z,24.1
2017-07-20T01:25:59.127Z,24.1
2017-07-20T01:27:07.214Z,24.1
2017-07-20T01:28:15.306Z,24.1
2017-07-20T01:29:23.391Z,24.1
2017-07-20T01:30:31.482Z,24.1
2017-07-20T01:31:39.569Z,24.2
2017-07-20T01:32:47.661Z,24.0
2017-07-20T01:33:55.756Z,24.1
2017-07-20T01:35:03.850Z,24.1
2017-07-20T01:36:11.938Z,24.1
2017-07-20T01:37:20.028Z,24.1
2017-07-20T01:38:28.143Z,24.1
2017-07-20T01:39:36.207Z,24.0
2017-07-20T01:40:44.295Z,24.0
2017-07-20T01:41:52.385Z,24.1
2017-07-20T01:43:00.475Z,24.0
2017-07-20T01:44:08.569Z,24.0
2017-07-20T01:45:16.650Z,24.0
2017-07-20T01:46:24.739Z,24.0
2017-07-20T01:47:32.832Z,24.0
2017-07-20T01:48:40.918Z,24.0
2017-07-20T01:49:49.004Z,23.9
2017-07-20T01:50:57.094Z,24.1
2017-07-20T01:52:05.184Z,24.0
2017-07-20T01:53:13.272Z,24.0
2017-07-20T01:54:21.362Z,23.9
2017-07-20T01:55:29.449Z,23.9
2017-07-20T01:56:37.539Z,24.0
2017-07-20T01:57:45.628Z,24.0
2017-07-20T01:58:53.716Z,24.0
2017-07-20T02:00:01.804Z,24.0
2017-07-20T02:01:09.894Z,23.9
2017-07-20T02:02:17.986Z,24.0
2017-07-20T02:03:26.073Z,24.0
2017-07-20T02:04:34.164Z,24.0
2017-07-20T02:05:42.251Z,23.9
2017-07-20T02:06:50.338Z,24.1
2017-07-20T02:07:58.429Z,24.1
2017-07-20T02:09:06.517Z,24.0
2017-07-20T02:10:14.607Z,24.0
2017-07-20T02:11:22.694Z,24.0
2017-07-20T02:12:30.843Z,23.9
2017-07-20T02:13:38.872Z,23.9
2017-07-20T02:14:46.958Z,23.9
2017-07-20T02:15:55.057Z,24.0
2017-07-20T02:17:03.144Z,23.9
2017-07-20T02:18:11.233Z,23.9
2017-07-20T02:19:19.324Z,23.9
2017-07-20T02:20:27.412Z,24.0
2017-07-20T02:21:35.500Z,23.9
2017-07-20T02:22:43.588Z,23.9
2017-07-20T02:23:51.677Z,23.9
2017-07-20T02:24:59.767Z,23.9
2017-07-20T02:26:07.856Z,23.9
2017-07-20T02:27:15.945Z,24.0
2017-07-20T02:28:24.036Z,23.9
2017-07-20T02:29:32.124Z,23.9
2017-07-20T02:30:40.213Z,23.9
2017-07-20T02:31:48.306Z,23.9
2017-07-20T02:32:56.419Z,23.9
2017-07-20T02:34:04.487Z,23.9
2017-07-20T02:35:12.609Z,23.9
2017-07-20T02:36:20.664Z,23.9
2017-07-20T02:37:28.753Z,23.9
2017-07-20T02:38:36.846Z,24.0
2017-07-20T02:39:44.930Z,23.9
2017-07-20T02:40:53.008Z,23.9
2017-07-20T02:42:01.094Z,23.9
2017-07-20T02:43:09.185Z,23.9
2017-07-20T02:44:17.274Z,23.9
2017-07-20T02:45:25.363Z,23.9
2017-07-20T02:46:33.453Z,23.9
2017-07-20T02:47:41.541Z,23.9
2017-07-20T02:48:49.630Z,23.8
2017-07-20T02:49:57.717Z,23.8
2017-07-20T02:51:05.927Z,23.8
2017-07-20T02:52:13.895Z,23.9
2017-07-20T02:53:21.982Z,23.9
2017-07-20T02:54:30.073Z,23.8
2017-07-20T02:55:38.165Z,23.8
2017-07-20T02:56:46.250Z,23.9
2017-07-20T02:57:54.339Z,23.8
2017-07-20T02:59:02.429Z,23.8
2017-07-20T03:00:10.518Z,23.8
2017-07-20T03:01:18.606Z,23.8
2017-07-20T03:02:26.694Z,23.8
2017-07-20T03:03:34.781Z,23.8
2017-07-20T03:04:42.871Z,23.9
2017-07-20T03:05:50.963Z,23.8
2017-07-20T03:06:59.050Z,23.8
2017-07-20T03:08:07.259Z,23.8
2017-07-20T03:09:15.230Z,23.8
2017-07-20T03:10:23.316Z,23.9
2017-07-20T03:11:31.404Z,23.8
2017-07-20T03:12:39.495Z,23.9
2017-07-20T03:13:47.581Z,23.8
2017-07-20T03:14:55.672Z,23.8
2017-07-20T03:16:03.761Z,23.8
2017-07-20T03:17:11.871Z,23.8
2017-07-20T03:18:19.941Z,23.8
2017-07-20T03:19:28.028Z,23.9
2017-07-20T03:20:36.118Z,23.8
2017-07-20T03:21:44.215Z,23.8
2017-07-20T03:22:52.295Z,23.9
2017-07-20T03:24:00.385Z,23.8
2017-07-20T03:25:08.475Z,23.8
2017-07-20T03:26:16.565Z,23.8
2017-07-20T03:27:24.652Z,23.8
2017-07-20T03:28:32.740Z,23.9
2017-07-20T03:29:40.831Z,23.8
2017-07-20T03:30:48.918Z,23.8
2017-07-20T03:31:57.008Z,23.8
2017-07-20T03:33:05.096Z,23.8
2017-07-20T03:34:13.221Z,23.7
2017-07-20T03:35:21.276Z,23.8
2017-07-20T03:36:29.366Z,23.9
2017-07-20T03:37:37.453Z,23.8
2017-07-20T03:38:45.543Z,23.8
2017-07-20T03:39:53.632Z,23.7
2017-07-20T03:41:01.722Z,23.9
2017-07-20T03:42:09.810Z,23.8
2017-07-20T03:43:17.899Z,23.8
2017-07-20T03:44:25.990Z,23.8
2017-07-20T03:45:34.080Z,23.8
2017-07-20T03:46:42.168Z,23.8
2017-07-20T03:47:50.258Z,23.7
2017-07-20T03:48:58.346Z,23.9
2017-07-20T03:50:06.437Z,23.8
2017-07-20T03:51:14.532Z,23.8
2017-07-20T03:52:22.614Z,23.8
2017-07-20T03:53:30.705Z,23.8
2017-07-20T03:54:38.795Z,23.8
2017-07-20T03:55:46.882Z,23.8
2017-07-20T03:56:54.971Z,23.8
2017-07-20T03:58:03.061Z,23.8
2017-07-20T03:59:11.149Z,23.8
2017-07-20T04:00:19.239Z,23.8
2017-07-20T04:01:27.324Z,23.7
2017-07-20T04:02:35.415Z,23.8
2017-07-20T04:03:43.505Z,23.8
2017-07-20T04:04:51.596Z,23.8
2017-07-20T04:05:59.684Z,23.8
2017-07-20T04:07:07.774Z,23.9
2017-07-20T04:08:15.886Z,23.8
2017-07-20T04:09:23.950Z,23.8
2017-07-20T04:10:32.041Z,23.8
2017-07-20T04:11:40.210Z,23.8
2017-07-20T04:12:48.278Z,23.8
2017-07-20T04:13:56.336Z,23.7
2017-07-20T04:15:04.411Z,23.7
2017-07-20T04:16:12.513Z,23.8
2017-07-20T04:17:20.635Z,23.8
2017-07-20T04:18:28.764Z,23.7
2017-07-20T04:19:36.769Z,23.8
2017-07-20T04:20:44.853Z,23.8
2017-07-20T04:21:52.957Z,23.8
2017-07-20T04:23:01.056Z,23.8
2017-07-20T04:24:09.191Z,23.8
2017-07-20T04:25:17.235Z,23.8
2017-07-20T04:26:25.306Z,23.8
2017-07-20T04:27:33.445Z,23.8
2017-07-20T04:28:41.490Z,23.8
2017-07-20T04:29:49.583Z,23.8
2017-07-20T04:30:57.685Z,23.8
2017-07-20T04:32:05.794Z,23.8
2017-07-20T04:33:13.984Z,23.8
2017-07-20T04:34:22.087Z,23.8
2017-07-20T04:35:30.635Z,23.8
2017-07-20T04:36:38.192Z,23.8
2017-07-20T04:37:46.397Z,23.8
2017-07-20T04:38:54.449Z,23.8
2017-07-20T04:40:03.044Z,23.8
2017-07-20T04:41:10.821Z,23.8
2017-07-20T04:42:18.767Z,23.8
2017-07-20T04:43:26.865Z,23.8
2017-07-20T04:44:34.928Z,23.7
2017-07-20T04:45:43.046Z,23.8
2017-07-20T04:46:51.281Z,23.7
2017-07-20T04:47:59.563Z,23.7
2017-07-20T04:49:07.380Z,23.7
2017-07-20T04:50:15.359Z,23.7
2017-07-20T04:51:23.537Z,23.7
2017-07-20T04:52:32.102Z,23.7
2017-07-20T04:53:39.745Z,23.7
2017-07-20T04:54:47.868Z,23.8
2017-07-20T04:55:55.734Z,23.8
2017-07-20T04:57:03.998Z,23.7
2017-07-20T04:58:12.008Z,23.7
2017-07-20T04:59:20.597Z,23.7
2017-07-20T05:00:28.181Z,23.7
2017-07-20T05:01:36.296Z,23.7
2017-07-20T05:02:44.810Z,23.8
2017-07-20T05:03:53.446Z,23.7
2017-07-20T05:05:00.710Z,23.8
2017-07-20T05:06:08.970Z,23.7
2017-07-20T05:07:17.315Z,23.7
2017-07-20T05:08:25.286Z,23.8
2017-07-20T05:09:33.209Z,23.7
2017-07-20T05:10:41.872Z,23.7
2017-07-20T05:11:49.520Z,23.6
2017-07-20T05:12:57.906Z,23.7
2017-07-20T05:14:05.574Z,23.7
2017-07-20T05:15:13.610Z,23.7
2017-07-20T05:16:22.542Z,23.7
2017-07-20T05:17:29.719Z,23.7
2017-07-20T05:18:37.985Z,23.7
2017-07-20T05:19:45.939Z,23.7
2017-07-20T05:20:54.099Z,23.7
2017-07-20T05:22:02.051Z,23.7
2017-07-20T05:23:10.217Z,23.8
2017-07-20T05:24:18.274Z,23.7
2017-07-20T05:25:26.580Z,23.7
2017-07-20T05:26:34.497Z,23.8
2017-07-20T05:27:43.095Z,23.7
2017-07-20T05:28:50.612Z,23.7
2017-07-20T05:29:58.715Z,23.7
2017-07-20T05:31:06.755Z,23.7
2017-07-20T05:32:14.807Z,23.7
2017-07-20T05:33:23.009Z,23.7
2017-07-20T05:34:31.143Z,23.7
2017-07-20T05:35:39.178Z,23.8
2017-07-20T05:36:47.214Z,23.7
2017-07-20T05:37:55.349Z,23.7
2017-07-20T05:39:03.500Z,23.7
2017-07-20T05:40:11.414Z,23.7
2017-07-20T05:41:19.380Z,23.7
2017-07-20T05:42:27.936Z,23.8
2017-07-20T05:43:35.730Z,23.7
2017-07-20T05:44:44.045Z,23.7
2017-07-20T05:45:51.969Z,23.8
2017-07-20T05:46:59.890Z,23.8
2017-07-20T05:48:08.118Z,23.8
2017-07-20T05:49:16.140Z,23.7
2017-07-20T05:50:24.301Z,23.7
2017-07-20T05:51:32.263Z,23.7
2017-07-20T05:52:40.404Z,23.7
2017-07-20T05:53:48.607Z,23.8
2017-07-20T05:54:56.674Z,23.7
2017-07-20T05:56:04.799Z,23.7
2017-07-20T05:57:12.923Z,23.8
2017-07-20T05:58:20.847Z,23.7
2017-07-20T05:59:28.833Z,23.7
2017-07-20T06:00:36.935Z,23.7
2017-07-20T06:01:45.165Z,23.7
2017-07-20T06:02:53.231Z,23.7
2017-07-20T06:04:01.270Z,23.8
2017-07-20T06:05:09.255Z,23.7
2017-07-20T06:06:17.254Z,23.8
2017-07-20T06:07:25.586Z,23.7
2017-07-20T06:08:33.495Z,23.6
2017-07-20T06:09:41.628Z,23.7
2017-07-20T06:10:49.633Z,23.7
2017-07-20T06:11:57.765Z,23.7
2017-07-20T06:13:05.870Z,23.8
2017-07-20T06:14:13.954Z,23.7
2017-07-20T06:15:22.236Z,23.7
2017-07-20T06:16:30.070Z,23.7
2017-07-20T06:17:38.162Z,23.7
2017-07-20T06:18:46.662Z,23.7
2017-07-20T06:19:54.481Z,23.8
2017-07-20T06:21:02.557Z,23.8
2017-07-20T06:22:10.994Z,23.7
2017-07-20T06:23:19.140Z,23.7
2017-07-20T06:24:26.899Z,23.8
2017-07-20T06:25:35.034Z,23.7
2017-07-20T06:26:43.478Z,23.7
2017-07-20T06:27:51.102Z,23.7
2017-07-20T06:28:59.149Z,23.7
2017-07-20T06:30:07.254Z,23.7
2017-07-20T06:31:15.380Z,23.7
2017-07-20T06:32:23.430Z,23.7
2017-07-20T06:33:31.445Z,23.7
2017-07-20T06:34:39.540Z,23.7
2017-07-20T06:35:47.711Z,23.7
2017-07-20T06:36:55.724Z,23.7
2017-07-20T06:38:04.009Z,23.7
2017-07-20T06:39:12.018Z,23.7
2017-07-20T06:40:20.052Z,23.7
2017-07-20T06:41:28.264Z,23.7
2017-07-20T06:42:36.222Z,23.6
2017-07-20T06:43:44.286Z,23.7
2017-07-20T06:44:52.527Z,23.7
2017-07-20T06:46:00.604Z,23.7
2017-07-20T06:47:08.425Z,23.7
2017-07-20T06:48:16.515Z,23.6
2017-07-20T06:49:25.164Z,23.7
2017-07-20T06:50:34.381Z,23.7
2017-07-20T06:51:40.721Z,23.7
2017-07-20T06:52:48.816Z,23.6
2017-07-20T06:53:56.901Z,23.7
2017-07-20T06:55:04.991Z,23.8
2017-07-20T06:56:13.079Z,23.7
2017-07-20T06:57:21.170Z,23.7
2017-07-20T06:58:29.256Z,23.7
2017-07-20T06:59:37.347Z,23.7
2017-07-20T07:00:45.435Z,23.7
2017-07-20T07:01:53.526Z,23.7
2017-07-20T07:03:01.617Z,23.7
2017-07-20T07:04:09.709Z,23.7
2017-07-20T07:05:17.794Z,23.7
2017-07-20T07:06:25.886Z,23.7
2017-07-20T07:07:33.971Z,23.8
2017-07-20T07:08:42.060Z,23.8
2017-07-20T07:09:50.149Z,23.8
2017-07-20T07:10:58.239Z,23.7
2017-07-20T07:12:06.325Z,23.7
2017-07-20T07:13:14.422Z,23.7
2017-07-20T07:14:22.512Z,23.7
2017-07-20T07:15:30.624Z,23.7
2017-07-20T07:16:38.689Z,23.7
2017-07-20T07:17:46.778Z,23.7
2017-07-20T07:18:54.867Z,23.8
2017-07-20T07:20:02.953Z,23.8
2017-07-20T07:21:11.045Z,23.7
2017-07-20T07:22:19.131Z,23.8
2017-07-20T07:23:27.220Z,23.7
2017-07-20T07:24:35.309Z,23.8
2017-07-20T07:25:43.401Z,23.7
2017-07-20T07:26:51.490Z,23.7
2017-07-20T07:27:59.577Z,23.8
2017-07-20T07:29:07.666Z,23.8
2017-07-20T07:30:15.756Z,23.7
2017-07-20T07:31:23.843Z,23.8
2017-07-20T07:32:31.933Z,23.7
2017-07-20T07:33:40.023Z,23.8
2017-07-20T07:34:48.113Z,23.7
2017-07-20T07:35:56.205Z,23.7
2017-07-20T07:37:04.290Z,23.7
2017-07-20T07:38:12.380Z,23.8
2017-07-20T07:39:20.468Z,23.8
2017-07-20T07:40:28.557Z,23.8
2017-07-20T07:41:36.645Z,23.7
2017-07-20T07:42:44.738Z,23.8
2017-07-20T07:43:52.830Z,23.7
2017-07-20T07:45:01.189Z,23.8
2017-07-20T07:46:09.006Z,23.8
2017-07-20T07:47:17.092Z,23.8
2017-07-20T07:48:25.186Z,23.8
2017-07-20T07:49:33.273Z,23.8
2017-07-20T07:50:41.362Z,23.8
2017-07-20T07:51:49.451Z,23.8
2017-07-20T07:52:57.539Z,23.8
2017-07-20T07:54:05.655Z,23.8
2017-07-20T07:55:13.743Z,23.7
2017-07-20T07:56:21.810Z,23.8
2017-07-20T07:57:29.897Z,23.7
2017-07-20T07:58:37.987Z,23.8
2017-07-20T07:59:46.076Z,23.8
2017-07-20T08:00:54.285Z,23.8
2017-07-20T08:02:02.255Z,23.8
2017-07-20T08:03:10.345Z,23.8
2017-07-20T08:04:18.433Z,23.8
2017-07-20T08:05:26.521Z,23.8
2017-07-20T08:06:34.629Z,23.8
2017-07-20T08:07:42.697Z,23.8
2017-07-20T08:08:50.786Z,23.8
2017-07-20T08:09:58.877Z,23.8
2017-07-20T08:11:06.963Z,23.7
2017-07-20T08:12:15.056Z,23.8
2017-07-20T08:13:23.144Z,23.8
2017-07-20T08:14:31.232Z,23.8
2017-07-20T08:15:39.322Z,23.8
2017-07-20T08:16:47.411Z,23.7
2017-07-20T08:17:55.498Z,23.8
2017-07-20T08:19:03.588Z,23.8
2017-07-20T08:20:11.678Z,23.8
2017-07-20T08:21:19.766Z,23.8
2017-07-20T08:22:27.856Z,23.8
2017-07-20T08:23:36.001Z,23.8
2017-07-20T08:24:44.034Z,23.8
2017-07-20T08:25:52.123Z,23.8
2017-07-20T08:27:00.210Z,23.7
2017-07-20T08:28:08.300Z,23.8
2017-07-20T08:29:16.391Z,23.8
2017-07-20T08:30:24.478Z,23.8
2017-07-20T08:31:32.567Z,23.8
2017-07-20T08:32:40.658Z,23.8
2017-07-20T08:33:48.745Z,23.9
2017-07-20T08:34:56.836Z,23.8
2017-07-20T08:36:04.933Z,23.8
2017-07-20T08:37:13.022Z,23.8
2017-07-20T08:38:21.109Z,23.8
2017-07-20T08:39:29.198Z,23.8
2017-07-20T08:40:37.289Z,23.8
2017-07-20T08:41:45.378Z,23.8
2017-07-20T08:42:53.468Z,23.8
2017-07-20T08:44:01.558Z,23.8
2017-07-20T08:45:09.643Z,23.8
2017-07-20T08:46:17.733Z,23.8
2017-07-20T08:47:25.824Z,23.8
2017-07-20T08:48:33.913Z,23.8
2017-07-20T08:49:42.002Z,23.8
2017-07-20T08:50:50.092Z,23.8
2017-07-20T08:51:58.178Z,23.8
2017-07-20T08:53:06.319Z,23.8
2017-07-20T08:54:14.356Z,23.8
2017-07-20T08:55:22.444Z,23.8
2017-07-20T08:56:30.535Z,23.8
2017-07-20T08:57:38.632Z,23.8
2017-07-20T08:58:46.713Z,23.8
2017-07-20T08:59:54.803Z,23.7
2017-07-20T09:01:02.925Z,23.8
2017-07-20T09:02:10.980Z,23.8
2017-07-20T09:03:19.070Z,23.8
2017-07-20T09:04:27.157Z,23.8
2017-07-20T09:05:35.246Z,23.7
2017-07-20T09:06:43.336Z,23.8
2017-07-20T09:07:51.426Z,23.7
2017-07-20T09:08:59.514Z,23.8
2017-07-20T09:10:07.601Z,23.7
2017-07-20T09:11:15.693Z,23.7
2017-07-20T09:12:23.784Z,23.7
2017-07-20T09:13:31.872Z,23.7
2017-07-20T09:14:39.960Z,23.7
2017-07-20T09:15:48.046Z,23.7
2017-07-20T09:16:56.136Z,23.7
2017-07-20T09:18:04.316Z,23.7
2017-07-20T09:19:12.325Z,23.7
2017-07-20T09:20:20.405Z,23.7
2017-07-20T09:21:28.492Z,23.7
2017-07-20T09:22:36.582Z,23.6
2017-07-20T09:23:44.671Z,23.7
2017-07-20T09:24:52.762Z,23.7
2017-07-20T09:26:00.850Z,23.7
2017-07-20T09:27:08.940Z,23.7
2017-07-20T09:28:17.029Z,23.7
2017-07-20T09:29:25.118Z,23.7
2017-07-20T09:30:33.208Z,23.7
2017-07-20T09:31:41.297Z,23.7
2017-07-20T09:32:49.385Z,23.6
2017-07-20T09:33:57.474Z,23.7
2017-07-20T09:35:05.637Z,23.6
2017-07-20T09:36:13.653Z,23.6
2017-07-20T09:37:21.740Z,23.7
2017-07-20T09:38:29.829Z,23.7
2017-07-20T09:39:37.920Z,23.7
2017-07-20T09:40:46.008Z,23.7
2017-07-20T09:41:54.099Z,23.7
2017-07-20T09:43:02.188Z,23.6
2017-07-20T09:44:10.275Z,23.7
2017-07-20T09:45:18.363Z,23.7
2017-07-20T09:46:26.452Z,23.7
2017-07-20T09:47:34.542Z,23.6
2017-07-20T09:48:42.634Z,23.6
2017-07-20T09:49:50.722Z,23.6
2017-07-20T09:50:58.810Z,23.6
2017-07-20T09:52:06.926Z,23.7
2017-07-20T09:53:14.990Z,23.6
2017-07-20T09:54:23.078Z,23.6
2017-07-20T09:55:31.166Z,23.6
2017-07-20T09:56:39.256Z,23.6
2017-07-20T09:57:47.352Z,23.6
2017-07-20T09:58:55.439Z,23.6
2017-07-20T10:00:03.531Z,23.6
2017-07-20T10:01:11.619Z,23.7
2017-07-20T10:02:19.724Z,23.6
2017-07-20T10:03:27.794Z,23.6
2017-07-20T10:04:35.883Z,23.6
2017-07-20T10:05:43.971Z,23.6
2017-07-20T10:06:52.061Z,23.6
2017-07-20T10:08:00.151Z,23.6
2017-07-20T10:09:08.249Z,23.6
2017-07-20T10:10:16.330Z,23.6
2017-07-20T10:11:24.420Z,23.6
2017-07-20T10:12:32.506Z,23.6
2017-07-20T10:13:40.594Z,23.6
2017-07-20T10:14:48.684Z,23.6
2017-07-20T10:15:56.773Z,23.6
2017-07-20T10:17:04.864Z,23.6
2017-07-20T10:18:12.950Z,23.7
2017-07-20T10:19:21.039Z,23.6
2017-07-20T10:20:29.129Z,23.6
2017-07-20T10:21:37.220Z,23.6
2017-07-20T10:22:45.311Z,23.6
2017-07-20T10:23:53.402Z,23.6
2017-07-20T10:25:01.491Z,23.6
2017-07-20T10:26:09.604Z,23.6
2017-07-20T10:27:17.671Z,23.6
2017-07-20T10:28:25.759Z,23.6
2017-07-20T10:29:33.849Z,23.6
2017-07-20T10:30:41.935Z,23.6
2017-07-20T10:31:50.026Z,23.6
2017-07-20T10:32:58.112Z,23.7
2017-07-20T10:34:06.201Z,23.6
2017-07-20T10:35:14.289Z,23.6
2017-07-20T10:36:22.380Z,23.6
2017-07-20T10:37:30.469Z,23.6
2017-07-20T10:38:38.559Z,23.5
2017-07-20T10:39:46.649Z,23.6
2017-07-20T10:40:54.746Z,23.5
2017-07-20T10:42:02.824Z,23.6
2017-07-20T10:43:10.983Z,23.6
2017-07-20T10:44:19.004Z,23.6
2017-07-20T10:45:27.092Z,23.6
2017-07-20T10:46:35.180Z,23.6
2017-07-20T10:47:43.270Z,23.6
2017-07-20T10:48:51.359Z,23.6
2017-07-20T10:49:59.448Z,23.5
2017-07-20T10:51:07.537Z,23.6
2017-07-20T10:52:15.628Z,23.6
2017-07-20T10:53:23.714Z,23.6
2017-07-20T10:54:31.802Z,23.5
2017-07-20T10:55:39.893Z,23.5
2017-07-20T10:56:48.005Z,23.6
2017-07-20T10:57:56.067Z,23.6
2017-07-20T10:59:04.161Z,23.6
2017-07-20T11:00:12.283Z,23.5
2017-07-20T11:01:20.335Z,23.5
2017-07-20T11:02:28.425Z,23.6
2017-07-20T11:03:36.513Z,23.5
2017-07-20T11:04:44.605Z,23.6
2017-07-20T11:05:52.695Z,23.6
2017-07-20T11:07:00.784Z,23.6
2017-07-20T11:08:08.873Z,23.6
2017-07-20T11:09:16.962Z,23.6
2017-07-20T11:10:25.048Z,23.6
2017-07-20T11:11:33.139Z,23.5
2017-07-20T11:12:41.227Z,23.5
2017-07-20T11:13:49.314Z,23.5
2017-07-20T11:14:57.403Z,23.5
2017-07-20T11:16:05.518Z,23.6
2017-07-20T11:17:13.628Z,23.5
2017-07-20T11:18:21.674Z,23.5
2017-07-20T11:19:29.762Z,23.6
2017-07-20T11:20:37.851Z,23.6
2017-07-20T11:21:45.938Z,23.6
2017-07-20T11:22:54.031Z,23.6
2017-07-20T11:24:02.118Z,23.5
2017-07-20T11:25:10.206Z,23.6
2017-07-20T11:26:18.298Z,23.5
2017-07-20T11:27:26.387Z,23.6
2017-07-20T11:28:34.474Z,23.5
2017-07-20T11:29:42.564Z,23.6
2017-07-20T11:30:50.652Z,23.5
2017-07-20T11:31:58.742Z,23.5
2017-07-20T11:33:06.827Z,23.5
2017-07-20T11:34:14.932Z,23.6
2017-07-20T11:35:23.008Z,23.5
2017-07-20T11:36:31.097Z,23.5
2017-07-20T11:37:39.187Z,23.5
2017-07-20T11:38:47.275Z,23.5
2017-07-20T11:39:55.365Z,23.6
2017-07-20T11:41:03.454Z,23.5
2017-07-20T11:42:11.541Z,23.5
2017-07-20T11:43:19.632Z,23.5
2017-07-20T11:44:27.722Z,23.5
2017-07-20T11:45:35.810Z,23.5
2017-07-20T11:46:43.900Z,23.5
2017-07-20T11:47:51.987Z,23.6
2017-07-20T11:49:00.076Z,23.6
2017-07-20T11:50:08.166Z,23.5
2017-07-20T11:51:16.297Z,23.5
2017-07-20T11:52:24.341Z,23.5
2017-07-20T11:53:32.433Z,23.6
2017-07-20T11:54:40.519Z,23.5
2017-07-20T11:55:48.611Z,23.5
2017-07-20T11:56:56.699Z,23.6
2017-07-20T11:58:04.788Z,23.6
2017-07-20T11:59:12.876Z,23.5
2017-07-20T12:00:20.963Z,23.5
2017-07-20T12:01:29.053Z,23.5
2017-07-20T12:02:37.142Z,23.6
2017-07-20T12:03:45.230Z,23.6
2017-07-20T12:04:53.322Z,23.6
2017-07-20T12:06:01.410Z,23.5
2017-07-20T12:07:09.500Z,23.6
2017-07-20T12:08:17.591Z,23.6
2017-07-20T12:09:25.678Z,23.5
2017-07-20T12:10:33.774Z,23.5
2017-07-20T12:11:41.867Z,23.6
2017-07-20T12:12:49.984Z,23.5
2017-07-20T12:13:58.046Z,23.6
2017-07-20T12:15:06.133Z,23.6
2017-07-20T12:16:14.224Z,23.6
2017-07-20T12:17:22.311Z,23.6
2017-07-20T12:18:30.405Z,23.5
2017-07-20T12:19:38.488Z,23.6
2017-07-20T12:20:46.578Z,23.6
2017-07-20T12:21:54.669Z,23.6
2017-07-20T12:23:02.756Z,23.5
2017-07-20T12:24:10.849Z,23.6
2017-07-20T12:25:19.003Z,23.6
2017-07-20T12:26:27.026Z,23.5
2017-07-20T12:27:35.113Z,23.6
2017-07-20T12:28:43.203Z,23.5
2017-07-20T12:29:51.294Z,23.5
2017-07-20T12:30:59.381Z,23.5
2017-07-20T12:32:07.470Z,23.5
2017-07-20T12:33:15.562Z,23.6
2017-07-20T12:34:23.649Z,23.6
2017-07-20T12:35:31.738Z,23.5
2017-07-20T12:36:39.826Z,23.5
2017-07-20T12:37:47.915Z,23.6
2017-07-20T12:38:56.006Z,23.5
2017-07-20T12:40:04.094Z,23.6
2017-07-20T12:41:12.182Z,23.5
2017-07-20T12:42:20.279Z,23.5
2017-07-20T12:43:28.363Z,23.6
2017-07-20T12:44:36.451Z,23.5
2017-07-20T12:45:44.541Z,23.6
2017-07-20T12:46:52.630Z,23.6
2017-07-20T12:48:00.719Z,23.5
2017-07-20T12:49:08.806Z,23.6
2017-07-20T12:50:16.895Z,23.5
2017-07-20T12:51:24.986Z,23.5
2017-07-20T12:52:33.074Z,23.5
2017-07-20T12:53:41.163Z,23.5
2017-07-20T12:54:49.254Z,23.5
2017-07-20T12:55:57.341Z,23.5
2017-07-20T12:57:05.456Z,23.6
2017-07-20T12:58:13.518Z,23.6
2017-07-20T12:59:21.652Z,23.5
2017-07-20T13:00:29.696Z,23.6
2017-07-20T13:01:37.788Z,23.6
2017-07-20T13:02:45.876Z,23.6
2017-07-20T13:03:53.963Z,23.6
2017-07-20T13:05:02.054Z,23.6
2017-07-20T13:06:10.142Z,23.6
2017-07-20T13:07:18.229Z,23.6
2017-07-20T13:08:26.321Z,23.6
2017-07-20T13:09:34.410Z,23.6
2017-07-20T13:10:42.497Z,23.6
2017-07-20T13:11:50.586Z,23.6
2017-07-20T13:12:58.673Z,23.6
2017-07-20T13:14:06.767Z,23.7
2017-07-20T13:15:14.878Z,23.6
2017-07-20T13:16:22.968Z,23.6
2017-07-20T13:17:31.032Z,23.7
2017-07-20T13:18:39.120Z,23.6
2017-07-20T13:19:47.207Z,23.6
2017-07-20T13:20:55.297Z,23.6
2017-07-20T13:22:03.384Z,23.6
2017-07-20T13:23:11.474Z,23.6
2017-07-20T13:24:19.569Z,23.6
2017-07-20T13:25:27.656Z,23.6
2017-07-20T13:26:35.746Z,23.6
2017-07-20T13:27:43.833Z,23.6
2017-07-20T13:28:51.925Z,23.6
2017-07-20T13:30:00.013Z,23.6
2017-07-20T13:31:08.103Z,23.6
2017-07-20T13:32:16.190Z,23.6
2017-07-20T13:33:24.289Z,23.6
2017-07-20T13:34:32.368Z,23.6
2017-07-20T13:35:40.482Z,23.6
2017-07-20T13:36:48.543Z,23.7
2017-07-20T13:37:56.632Z,23.6
2017-07-20T13:39:04.725Z,23.6
2017-07-20T13:40:12.810Z,23.6
2017-07-20T13:41:20.903Z,23.6
2017-07-20T13:42:28.991Z,23.6
2017-07-20T13:43:37.080Z,23.6
2017-07-20T13:44:45.167Z,23.7
2017-07-20T13:45:53.253Z,23.6
2017-07-20T13:47:01.343Z,23.6
2017-07-20T13:48:09.432Z,23.6
2017-07-20T13:49:17.521Z,23.6
2017-07-20T13:50:25.694Z,23.6
2017-07-20T13:51:33.701Z,23.6
2017-07-20T13:52:41.790Z,23.6
2017-07-20T13:53:49.878Z,23.7
2017-07-20T13:54:57.968Z,23.6
2017-07-20T13:56:06.057Z,23.6
2017-07-20T13:57:14.144Z,23.6
2017-07-20T13:58:22.233Z,23.6
2017-07-20T13:59:30.325Z,23.7
2017-07-20T14:00:38.415Z,23.7
2017-07-20T14:01:46.502Z,23.6
2017-07-20T14:02:54.594Z,23.6
2017-07-20T14:04:02.677Z,23.7
2017-07-20T14:05:10.774Z,23.6
2017-07-20T14:06:18.854Z,23.6
2017-07-20T14:07:26.955Z,23.7
2017-07-20T14:08:35.035Z,23.7
2017-07-20T14:09:43.123Z,23.7
2017-07-20T14:10:51.213Z,23.6
2017-07-20T14:11:59.301Z,23.7
2017-07-20T14:13:07.392Z,23.6
2017-07-20T14:14:15.479Z,23.7
2017-07-20T14:15:23.568Z,23.7
2017-07-20T14:16:31.656Z,23.6
2017-07-20T14:17:39.747Z,23.7
2017-07-20T14:18:47.835Z,23.7
2017-07-20T14:19:55.923Z,23.7
2017-07-20T14:21:04.012Z,23.7
2017-07-20T14:22:12.102Z,23.7
2017-07-20T14:23:20.194Z,23.7
2017-07-20T14:24:28.360Z,23.7
2017-07-20T14:25:36.377Z,23.7
2017-07-20T14:26:44.465Z,23.7
2017-07-20T14:27:52.553Z,23.6
2017-07-20T14:29:00.643Z,23.7
2017-07-20T14:30:08.733Z,23.7
2017-07-20T14:31:16.819Z,23.7
2017-07-20T14:32:24.910Z,23.7
2017-07-20T14:33:33.013Z,23.7
2017-07-20T14:34:41.093Z,23.7
2017-07-20T14:35:49.181Z,23.8
2017-07-20T14:36:57.269Z,23.7
2017-07-20T14:38:05.359Z,23.7
2017-07-20T14:39:13.450Z,23.7
2017-07-20T14:40:21.541Z,23.7
2017-07-20T14:41:29.652Z,23.8
2017-07-20T14:42:37.721Z,23.8
2017-07-20T14:43:45.809Z,23.8
2017-07-20T14:44:53.898Z,23.7
2017-07-20T14:46:01.989Z,23.7
2017-07-20T14:47:10.078Z,23.7
2017-07-20T14:48:18.167Z,23.8
2017-07-20T14:49:26.255Z,23.7
2017-07-20T14:50:34.343Z,23.7
2017-07-20T14:51:42.434Z,23.7
2017-07-20T14:52:50.522Z,23.7
2017-07-20T14:53:58.611Z,23.7
2017-07-20T14:55:06.702Z,23.7
2017-07-20T14:56:14.790Z,23.7
2017-07-20T14:57:22.878Z,23.7
2017-07-20T14:58:30.977Z,23.7
2017-07-20T14:59:39.065Z,23.7
2017-07-20T15:00:47.152Z,23.8
2017-07-20T15:01:55.241Z,23.7
2017-07-20T15:03:03.331Z,23.7
2017-07-20T15:04:11.420Z,23.7
2017-07-20T15:05:19.509Z,23.7
2017-07-20T15:06:27.596Z,23.7